createdAt,value
2019-03-13T00:02:56.225Z,8.71
2019-03-13T00:14:49.698Z,8.60
2019-03-13T00:17:37.284Z,8.64
2019-03-13T00:26:11.281Z,8.59
2019-03-13T00:28:58.810Z,8.54
2019-03-13T00:31:47.639Z,8.55
2019-03-13T00:34:35.229Z,8.53
2019-03-13T00:42:47.022Z,8.57
2019-03-13T00:45:34.531Z,8.59
2019-03-13T00:55:03.367Z,8.57
2019-03-13T00:57:49.923Z,8.53
2019-03-13T01:06:54.680Z,8.40
2019-03-13T01:09:44.562Z,8.43
2019-03-13T01:12:41.069Z,8.41
2019-03-13T01:42:40.932Z,8.35
2019-03-13T01:54:22.864Z,9.09
2019-03-13T01:59:44.960Z,9.18
2019-03-13T02:05:10.255Z,9.49
2019-03-13T02:07:57.080Z,8.84
2019-03-13T02:10:44.077Z,8.68
2019-03-13T02:19:21.586Z,8.45
2019-03-13T02:22:16.909Z,8.43
2019-03-13T02:40:00.898Z,8.38
2019-03-13T02:54:59.636Z,7.71
2019-03-13T03:10:12.461Z,7.27
2019-03-13T03:13:00.285Z,7.24
2019-03-13T03:22:05.133Z,7.07
2019-03-13T03:25:01.074Z,7.00
2019-03-13T03:30:57.407Z,6.74
2019-03-13T03:42:27.228Z,6.60
2019-03-13T03:50:59.166Z,6.52
2019-03-13T04:02:37.073Z,6.29
2019-03-13T04:22:45.669Z,5.60
2019-03-13T04:25:36.158Z,5.54
2019-03-13T04:28:23.794Z,5.46
2019-03-13T04:37:38.990Z,5.18
2019-03-13T04:57:42.190Z,4.68
2019-03-13T05:12:19.255Z,4.34
2019-03-13T05:15:06.005Z,4.32
2019-03-13T05:18:07.076Z,4.31
2019-03-13T05:20:54.396Z,4.30
2019-03-13T05:23:47.632Z,4.29
2019-03-13T05:26:35.541Z,4.28
2019-03-13T05:32:26.945Z,5.02
2019-03-13T05:35:21.207Z,4.51
2019-03-13T05:41:20.500Z,4.44
2019-03-13T05:50:31.417Z,5.41
2019-03-13T05:55:53.570Z,4.86
2019-03-13T05:58:48.871Z,4.85
2019-03-13T06:11:00.736Z,5.05
2019-03-13T06:19:48.535Z,5.24
2019-03-13T06:22:36.113Z,5.35
2019-03-13T06:46:22.695Z,6.20
2019-03-13T06:49:22.142Z,6.29
2019-03-13T06:57:57.509Z,7.51
2019-03-13T07:03:37.368Z,7.39
2019-03-13T07:06:23.815Z,7.24
2019-03-13T07:09:12.020Z,7.35
2019-03-13T07:11:58.840Z,7.45
2019-03-13T07:29:26.490Z,8.00
2019-03-13T07:32:13.329Z,8.11
2019-03-13T07:34:59.885Z,8.27
2019-03-13T07:59:33.990Z,9.04
2019-03-13T08:05:32.532Z,9.27
2019-03-13T08:08:25.342Z,9.49
2019-03-13T08:11:18.462Z,9.56
2019-03-13T08:14:08.138Z,9.67
2019-03-13T08:16:55.171Z,9.68
2019-03-13T08:19:47.928Z,10.99
2019-03-13T08:22:34.823Z,11.25
2019-03-13T08:42:56.597Z,10.59
2019-03-13T08:50:07.336Z,11.14
2019-03-13T08:53:00.127Z,11.08
2019-03-13T08:55:47.329Z,11.14
2019-03-13T08:58:39.957Z,10.88
2019-03-13T09:01:58.785Z,12.25
2019-03-13T09:08:55.392Z,10.75
2019-03-13T09:12:26.940Z,10.70
2019-03-13T09:15:22.757Z,10.56
2019-03-13T09:18:29.494Z,10.47
2019-03-13T09:21:19.326Z,10.42
2019-03-13T09:24:15.129Z,10.13
2019-03-13T09:27:13.745Z,11.39
2019-03-13T09:30:00.548Z,11.61
2019-03-13T09:33:00.178Z,10.48
2019-03-13T09:35:50.170Z,10.19
2019-03-13T09:38:55.185Z,10.02
2019-03-13T09:41:42.093Z,9.77
2019-03-13T09:44:31.795Z,9.78
2019-03-13T09:47:36.480Z,9.73
2019-03-13T09:54:36.011Z,9.87
2019-03-13T09:57:25.643Z,10.03
2019-03-13T10:00:44.259Z,11.23
2019-03-13T10:03:29.759Z,10.24
2019-03-13T10:06:22.806Z,10.09
2019-03-13T10:09:18.391Z,10.16
2019-03-13T10:12:20.180Z,10.25
2019-03-13T10:15:12.947Z,10.53
2019-03-13T10:21:23.676Z,10.61
2019-03-13T10:24:10.328Z,10.71
2019-03-13T10:27:09.287Z,10.97
2019-03-13T10:29:56.157Z,12.44
2019-03-13T10:32:56.137Z,11.53
2019-03-13T10:35:48.942Z,11.33
2019-03-13T10:38:53.992Z,11.30
2019-03-13T10:41:42.497Z,11.40
2019-03-13T10:44:38.210Z,11.35
2019-03-13T10:55:07.500Z,11.32
2019-03-13T10:57:57.423Z,11.33
2019-03-13T11:00:44.165Z,11.35
2019-03-13T11:03:48.675Z,11.19
2019-03-13T11:06:55.195Z,11.04
2019-03-13T11:13:20.825Z,11.08
2019-03-13T11:57:43.301Z,11.90
2019-03-13T12:00:53.536Z,12.06
2019-03-13T12:07:04.013Z,12.56
2019-03-13T12:09:53.806Z,12.72
2019-03-13T12:12:46.667Z,12.62
2019-03-13T12:15:33.672Z,12.78
2019-03-13T12:18:21.494Z,12.79
2019-03-13T12:21:25.993Z,12.81
2019-03-13T12:24:18.729Z,12.93
2019-03-13T12:27:26.738Z,13.06
2019-03-13T12:30:16.528Z,13.23
2019-03-13T12:33:12.523Z,13.37
2019-03-13T12:36:34.013Z,12.83
2019-03-13T12:42:11.432Z,12.55
2019-03-13T12:45:07.405Z,12.63
2019-03-13T12:47:54.718Z,13.95
2019-03-13T12:50:47.880Z,12.64
2019-03-13T12:53:42.211Z,12.16
2019-03-13T12:56:30.269Z,11.97
2019-03-13T12:59:19.203Z,11.62
2019-03-13T13:02:29.237Z,11.51
2019-03-13T13:05:33.959Z,11.15
2019-03-13T13:08:23.531Z,11.05
2019-03-13T13:11:18.730Z,11.00
2019-03-13T13:14:20.431Z,10.91
2019-03-13T13:17:08.132Z,10.76
2019-03-13T13:20:02.817Z,10.74
2019-03-13T13:22:49.819Z,10.69
2019-03-13T13:25:37.233Z,10.67
2019-03-13T13:28:39.076Z,10.63
2019-03-13T13:31:25.634Z,10.57
2019-03-13T13:34:12.590Z,10.55
2019-03-13T13:40:05.547Z,10.64
2019-03-13T13:42:53.229Z,10.66
2019-03-13T13:45:39.742Z,10.68
2019-03-13T13:48:26.844Z,10.61
2019-03-13T13:51:14.707Z,10.65
2019-03-13T13:54:01.284Z,10.69
2019-03-13T13:57:41.162Z,10.62
2019-03-13T14:00:28.148Z,10.64
2019-03-13T14:03:32.555Z,10.66
2019-03-13T14:06:19.186Z,10.62
2019-03-13T14:09:07.374Z,11.53
2019-03-13T14:16:31.339Z,10.65
2019-03-13T14:30:32.949Z,10.41
2019-03-13T14:44:09.288Z,10.19
2019-03-13T14:54:42.045Z,10.00
2019-03-13T14:57:28.779Z,9.98
2019-03-13T15:00:24.562Z,9.97
2019-03-13T15:03:11.629Z,10.04
2019-03-13T15:05:58.370Z,9.97
2019-03-13T15:08:46.766Z,10.06
2019-03-13T15:11:33.773Z,10.09
2019-03-13T15:14:35.203Z,10.06
2019-03-13T15:17:22.120Z,10.18
2019-03-13T15:20:26.438Z,10.35
2019-03-13T15:23:13.154Z,11.27
2019-03-13T15:26:00.354Z,10.63
2019-03-13T15:28:47.486Z,10.52
2019-03-13T15:31:34.278Z,10.54
2019-03-13T15:34:28.662Z,10.49
2019-03-13T15:37:15.377Z,11.29
2019-03-13T15:40:02.479Z,10.55
2019-03-13T15:42:51.969Z,10.32
2019-03-13T15:45:38.855Z,10.23
2019-03-13T15:59:15.823Z,10.11
2019-03-13T16:02:02.729Z,10.18
2019-03-13T16:05:09.188Z,11.08
2019-03-13T16:07:56.182Z,10.40
2019-03-13T16:14:01.645Z,9.95
2019-03-13T16:16:48.562Z,9.96
2019-03-13T16:19:35.454Z,9.94
2019-03-13T16:26:02.383Z,9.79
2019-03-13T16:28:49.209Z,9.77
2019-03-13T16:31:36.321Z,9.72
2019-03-13T16:34:23.243Z,9.63
2019-03-13T16:37:10.052Z,9.63
2019-03-13T16:43:18.829Z,10.51
2019-03-13T16:46:05.657Z,9.83
2019-03-13T16:48:52.477Z,9.79
2019-03-13T16:51:45.425Z,9.77
2019-03-13T16:54:32.204Z,9.60
2019-03-13T16:57:18.741Z,9.55
2019-03-13T17:07:07.317Z,9.07
2019-03-13T17:12:30.338Z,9.04
2019-03-13T17:15:16.824Z,9.03
2019-03-13T17:30:43.530Z,8.97
2019-03-13T17:33:30.853Z,8.97
2019-03-13T17:36:17.422Z,8.97
2019-03-13T17:39:04.243Z,8.91
2019-03-13T17:44:57.149Z,8.82
2019-03-13T17:47:43.798Z,8.73
2019-03-13T17:50:31.383Z,8.70
2019-03-13T17:53:17.985Z,9.38
2019-03-13T17:56:04.866Z,8.87
2019-03-13T17:58:58.787Z,8.79
2019-03-13T18:01:53.392Z,8.73
2019-03-13T18:04:40.646Z,9.49
2019-03-13T18:07:30.081Z,9.69
2019-03-13T18:10:17.791Z,9.87
2019-03-13T18:13:07.236Z,9.23
2019-03-13T18:15:54.207Z,9.07
2019-03-13T18:18:41.211Z,9.75
2019-03-13T18:21:28.019Z,9.14
2019-03-13T18:24:15.125Z,8.98
2019-03-13T18:27:02.287Z,9.71
2019-03-13T18:29:49.248Z,9.13
2019-03-13T18:32:42.114Z,9.77
2019-03-13T18:35:24.942Z,9.08
2019-03-13T18:38:11.547Z,8.79
2019-03-13T18:40:58.829Z,9.50
2019-03-13T18:43:45.364Z,8.78
2019-03-13T18:46:32.377Z,8.66
2019-03-13T18:49:20.822Z,9.37
2019-03-13T18:52:05.496Z,8.67
2019-03-13T18:54:52.080Z,8.39
2019-03-13T18:57:38.784Z,9.12
2019-03-13T19:00:25.786Z,8.45
2019-03-13T19:03:12.756Z,8.24
2019-03-13T19:06:02.678Z,8.13
2019-03-13T19:08:49.260Z,8.13
2019-03-13T19:11:36.046Z,8.02
2019-03-13T19:14:23.024Z,7.97
2019-03-13T19:20:15.484Z,7.89
2019-03-13T19:23:02.831Z,7.91
2019-03-13T19:25:50.001Z,7.88
2019-03-13T19:28:37.037Z,7.93
2019-03-13T19:31:23.394Z,7.94
2019-03-13T19:34:10.698Z,7.93
2019-03-13T19:37:05.225Z,7.93
2019-03-13T19:39:52.111Z,7.89
2019-03-13T19:42:39.002Z,7.87
2019-03-13T19:45:31.269Z,7.82
2019-03-13T19:48:20.164Z,7.66
2019-03-13T19:51:06.670Z,7.73
2019-03-13T19:53:53.294Z,7.64
2019-03-13T19:56:41.044Z,7.49
2019-03-13T19:59:31.229Z,7.49
2019-03-13T20:02:16.532Z,7.52
2019-03-13T20:05:03.615Z,7.44
2019-03-13T20:07:50.680Z,7.40
2019-03-13T20:10:37.353Z,7.45
2019-03-13T20:13:23.923Z,8.12
2019-03-13T20:16:10.531Z,7.56
2019-03-13T20:18:57.620Z,7.49
2019-03-13T20:21:47.423Z,7.54
2019-03-13T20:24:35.070Z,7.54
2019-03-13T20:27:21.627Z,7.46
2019-03-13T20:30:11.376Z,7.47
2019-03-13T20:32:58.008Z,7.46
2019-03-13T20:35:44.463Z,7.42
2019-03-13T20:38:33.719Z,7.46
2019-03-13T20:41:20.391Z,7.48
2019-03-13T20:44:07.628Z,7.47
2019-03-13T20:46:54.637Z,8.21
2019-03-13T20:49:41.501Z,7.69
2019-03-13T20:55:34.937Z,7.47
2019-03-13T20:58:21.834Z,7.51
2019-03-13T21:01:08.682Z,7.50
2019-03-13T21:04:09.713Z,7.43
2019-03-13T21:06:56.529Z,7.41
2019-03-13T21:12:49.205Z,7.36
2019-03-13T21:15:35.853Z,8.05
2019-03-13T21:18:22.680Z,7.55
2019-03-13T21:21:09.762Z,7.38
2019-03-13T21:23:56.818Z,7.36
2019-03-13T21:26:43.434Z,7.24
2019-03-13T21:32:35.624Z,7.18
2019-03-13T21:35:22.344Z,7.14
2019-03-13T21:38:17.443Z,7.11
2019-03-13T21:41:04.381Z,7.13
2019-03-13T21:43:51.365Z,7.11
2019-03-13T21:46:38.273Z,7.13
2019-03-13T21:49:24.875Z,7.14
2019-03-13T21:52:11.791Z,7.14
2019-03-13T21:54:58.299Z,7.13
2019-03-13T21:57:44.941Z,7.13
2019-03-13T22:00:31.554Z,7.13
2019-03-13T22:06:28.934Z,7.10
2019-03-13T22:09:11.553Z,7.06
2019-03-13T22:11:58.478Z,7.02
2019-03-13T22:14:44.991Z,7.75
2019-03-13T22:17:31.982Z,7.33
2019-03-13T22:20:19.750Z,7.26
2019-03-13T22:23:06.228Z,7.17
2019-03-13T22:25:52.744Z,7.23
2019-03-13T22:28:40.972Z,7.21
2019-03-13T22:31:29.326Z,7.25
2019-03-13T22:34:16.087Z,7.26
2019-03-13T22:37:02.940Z,7.26
2019-03-13T22:39:49.849Z,7.19
2019-03-13T22:42:36.848Z,7.21
2019-03-13T22:45:23.634Z,7.10
2019-03-13T22:48:11.019Z,7.12
2019-03-13T22:50:58.239Z,7.08
2019-03-13T22:53:45.723Z,7.08
2019-03-13T22:56:33.383Z,7.03
2019-03-13T22:59:20.189Z,7.00
2019-03-13T23:02:09.142Z,7.00
2019-03-13T23:04:55.741Z,6.96
2019-03-13T23:07:42.956Z,6.95
2019-03-13T23:10:30.480Z,7.03
2019-03-13T23:13:17.826Z,7.03
2019-03-13T23:16:04.225Z,7.04
2019-03-13T23:18:53.571Z,7.05
2019-03-13T23:21:40.072Z,7.08
2019-03-13T23:24:34.386Z,7.09
2019-03-13T23:27:21.228Z,7.78
2019-03-13T23:30:07.749Z,7.23
2019-03-13T23:32:54.681Z,7.10
2019-03-13T23:35:41.571Z,7.06
2019-03-13T23:38:28.849Z,7.04
2019-03-13T23:41:15.755Z,7.05
2019-03-13T23:44:02.228Z,7.07
2019-03-13T23:47:02.988Z,7.07
2019-03-13T23:49:49.996Z,7.10
2019-03-13T23:52:41.741Z,7.85
2019-03-13T23:55:36.000Z,7.33
2019-03-13T23:58:29.898Z,7.24
